createdAt,value
2018-05-06T04:09:43.333Z,604
2018-05-06T04:10:08.813Z,612
2018-05-06T04:10:34.284Z,624
2018-05-06T04:10:59.786Z,636
2018-05-06T04:11:25.260Z,648
2018-05-06T04:11:50.733Z,656
2018-05-06T04:12:16.182Z,668
2018-05-06T04:12:41.679Z,676
2018-05-06T04:13:07.148Z,684
2018-05-06T04:13:32.768Z,696
2018-05-06T04:13:58.265Z,708
2018-05-06T04:14:23.752Z,720
2018-05-06T04:14:49.216Z,728
2018-05-06T04:15:14.695Z,740
2018-05-06T04:15:40.156Z,748
2018-05-06T04:16:05.647Z,760
2018-05-06T04:16:31.097Z,772
2018-05-06T04:16:56.600Z,780
2018-05-06T04:17:22.132Z,792
2018-05-06T04:17:47.548Z,800
2018-05-06T04:18:13.250Z,812
2018-05-06T04:18:38.745Z,820
2018-05-06T04:19:04.216Z,832
2018-05-06T04:19:29.685Z,844
2018-05-06T04:19:55.222Z,852
2018-05-06T04:20:20.649Z,860
2018-05-06T04:20:46.090Z,872
2018-05-06T04:21:11.716Z,880
2018-05-06T04:21:37.103Z,892
2018-05-06T04:22:02.545Z,900
2018-05-06T04:22:27.995Z,912
2018-05-06T04:22:53.450Z,920
2018-05-06T04:23:18.901Z,932
2018-05-06T04:23:44.427Z,940
2018-05-06T04:24:09.877Z,948
2018-05-06T04:24:35.390Z,960
2018-05-06T04:25:00.804Z,968
2018-05-06T04:25:26.320Z,976
2018-05-06T04:25:51.770Z,988
2018-05-06T04:26:17.199Z,996
2018-05-06T04:26:42.708Z,1008
2018-05-06T04:27:08.151Z,1016
2018-05-06T04:27:33.612Z,1028
2018-05-06T04:27:59.103Z,1036
2018-05-06T04:28:24.657Z,1048
2018-05-06T04:28:50.166Z,1052
2018-05-06T04:29:15.686Z,1064
2018-05-06T04:29:41.155Z,1072
2018-05-06T04:30:06.660Z,1084
2018-05-06T04:30:32.166Z,1092
2018-05-06T04:30:57.520Z,1104
2018-05-06T04:31:23.026Z,1112
2018-05-06T04:31:48.619Z,1124
2018-05-06T04:32:14.070Z,1132
2018-05-06T04:32:39.438Z,1144
2018-05-06T04:33:04.990Z,1160
2018-05-06T04:33:30.440Z,1176
2018-05-06T04:33:55.901Z,1192
2018-05-06T04:34:21.360Z,1216
2018-05-06T04:34:46.897Z,1240
2018-05-06T04:35:12.316Z,1268
2018-05-06T04:35:37.804Z,1300
2018-05-06T04:36:03.291Z,1332
2018-05-06T04:36:28.757Z,1368
2018-05-06T04:36:54.219Z,1404
2018-05-06T04:37:19.644Z,1440
2018-05-06T04:37:45.196Z,1468
2018-05-06T04:38:10.779Z,1500
2018-05-06T04:38:36.245Z,1536
2018-05-06T04:39:01.720Z,1568
2018-05-06T04:39:27.207Z,1600
2018-05-06T04:39:52.688Z,1640
2018-05-06T04:40:18.311Z,1672
2018-05-06T04:40:43.674Z,1712
2018-05-06T04:41:09.192Z,1760
2018-05-06T04:41:34.618Z,1804
2018-05-06T04:42:00.143Z,1852
2018-05-06T04:42:25.681Z,1904
2018-05-06T04:42:51.229Z,1960
2018-05-06T04:43:16.795Z,2008
2018-05-06T04:43:42.295Z,2060
2018-05-06T04:44:07.818Z,2108
2018-05-06T04:44:33.177Z,2160
2018-05-06T04:44:58.715Z,2212
2018-05-06T04:45:24.249Z,2256
2018-05-06T04:45:49.714Z,2296
2018-05-06T04:46:15.171Z,2328
2018-05-06T04:46:40.582Z,2360
2018-05-06T04:47:06.126Z,2388
2018-05-06T04:47:31.630Z,2412
2018-05-06T04:47:57.176Z,2428
2018-05-06T04:48:22.636Z,2432
2018-05-06T04:48:48.172Z,2428
2018-05-06T04:49:13.615Z,2412
2018-05-06T04:49:39.129Z,2392
2018-05-06T04:50:04.474Z,2376
2018-05-06T04:50:30.040Z,2372
2018-05-06T04:50:55.404Z,2380
2018-05-06T04:51:20.929Z,2400
2018-05-06T04:51:46.540Z,2428
2018-05-06T04:52:11.954Z,2460
2018-05-06T04:52:37.387Z,2496
2018-05-06T04:53:02.832Z,2540
2018-05-06T04:53:28.315Z,2592
2018-05-06T04:53:53.771Z,2628
2018-05-06T04:54:19.238Z,2664
2018-05-06T04:54:44.707Z,2692
2018-05-06T04:55:10.171Z,2712
2018-05-06T04:55:35.602Z,2732
2018-05-06T04:56:01.128Z,2748
2018-05-06T04:56:26.599Z,2768
2018-05-06T04:56:52.047Z,2776
2018-05-06T04:57:17.518Z,2796
2018-05-06T04:57:43.015Z,2812
2018-05-06T04:58:08.497Z,2828
2018-05-06T04:58:33.944Z,2844
2018-05-06T04:58:59.428Z,2856
2018-05-06T04:59:24.866Z,2868
2018-05-06T04:59:50.285Z,2884
2018-05-06T05:00:15.777Z,2904
2018-05-06T05:00:41.253Z,2916
2018-05-06T05:01:06.720Z,2932
2018-05-06T05:01:32.133Z,2944
2018-05-06T05:01:57.634Z,2952
2018-05-06T05:02:23.045Z,2972
2018-05-06T05:02:48.577Z,2984
2018-05-06T05:03:14.003Z,2996
2018-05-06T05:03:39.447Z,3012
2018-05-06T05:04:04.933Z,3020
2018-05-06T05:04:30.442Z,3036
2018-05-06T05:04:55.890Z,3048
2018-05-06T05:05:21.412Z,3064
2018-05-06T05:05:46.901Z,3076
2018-05-06T05:06:12.328Z,3088
2018-05-06T05:06:37.808Z,3096
2018-05-06T05:07:03.361Z,3108
2018-05-06T05:07:28.828Z,3124
2018-05-06T05:07:54.326Z,3132
2018-05-06T05:08:19.885Z,3148
2018-05-06T05:08:45.376Z,3156
2018-05-06T05:09:10.847Z,3168
2018-05-06T05:09:36.422Z,3184
2018-05-06T05:10:01.792Z,3196
2018-05-06T05:10:27.256Z,3204
2018-05-06T05:10:52.703Z,3220
2018-05-06T05:11:18.234Z,3232
2018-05-06T05:11:43.657Z,3244
2018-05-06T05:12:09.279Z,3260
2018-05-06T05:12:34.677Z,3280
2018-05-06T05:13:00.166Z,3296
2018-05-06T05:13:25.639Z,3316
2018-05-06T05:13:51.134Z,3332
2018-05-06T05:14:16.576Z,3356
2018-05-06T05:14:42.066Z,3380
2018-05-06T05:15:07.550Z,3408
2018-05-06T05:15:33.052Z,3432
2018-05-06T05:15:58.549Z,3460
2018-05-06T05:16:24.137Z,3492
2018-05-06T05:16:49.671Z,3520
2018-05-06T05:17:15.247Z,3544
2018-05-06T05:17:40.758Z,3572
2018-05-06T05:18:06.219Z,3600
2018-05-06T05:18:31.726Z,3628
2018-05-06T05:18:57.251Z,3652
2018-05-06T05:19:22.775Z,3676
2018-05-06T05:19:48.313Z,3688
2018-05-06T05:20:13.924Z,3704
2018-05-06T05:20:39.386Z,3720
2018-05-06T05:21:04.871Z,3732
2018-05-06T05:21:30.442Z,3752
2018-05-06T05:21:55.916Z,3768
2018-05-06T05:22:21.435Z,3784
2018-05-06T05:22:46.877Z,3804
2018-05-06T05:23:12.329Z,3816
2018-05-06T05:23:37.802Z,3828
2018-05-06T05:24:03.240Z,3848
2018-05-06T05:24:28.678Z,3856
2018-05-06T05:24:54.151Z,3880
2018-05-06T05:25:19.628Z,3892
2018-05-06T05:25:45.093Z,3912
2018-05-06T05:26:10.573Z,3924
2018-05-06T05:26:36.066Z,3948
2018-05-06T05:27:01.534Z,3956
2018-05-06T05:27:27.034Z,3972
2018-05-06T05:27:52.483Z,3984
2018-05-06T05:28:17.993Z,4000
2018-05-06T05:28:43.429Z,4008
2018-05-06T05:29:08.871Z,4028
2018-05-06T05:29:34.318Z,4032
2018-05-06T05:29:59.811Z,4060
2018-05-06T05:30:25.299Z,4068
2018-05-06T05:30:50.724Z,4080
2018-05-06T05:31:16.448Z,4088
2018-05-06T05:31:41.858Z,4100
2018-05-06T05:32:07.383Z,4116
2018-05-06T05:32:32.807Z,4128
2018-05-06T05:32:58.276Z,4140
2018-05-06T05:33:23.753Z,4156
2018-05-06T05:33:49.238Z,4176
2018-05-06T05:34:14.699Z,4184
2018-05-06T05:34:40.149Z,4112
2018-05-06T05:35:05.633Z,4216
2018-05-06T05:35:31.130Z,4240
2018-05-06T05:35:56.590Z,4260
2018-05-06T05:36:22.021Z,4288
2018-05-06T05:36:47.809Z,4324
2018-05-06T05:37:13.257Z,4356
2018-05-06T05:37:38.761Z,4376
2018-05-06T05:38:04.178Z,4404
2018-05-06T05:38:29.730Z,4432
2018-05-06T05:38:55.116Z,4480
2018-05-06T05:39:20.582Z,4536
2018-05-06T05:39:46.116Z,4604
2018-05-06T05:40:11.577Z,4644
2018-05-06T05:40:37.144Z,4720
2018-05-06T05:41:02.613Z,4780
2018-05-06T05:41:28.138Z,4812
2018-05-06T05:41:53.649Z,4848
2018-05-06T05:42:19.082Z,4856
2018-05-06T05:42:44.564Z,4848
2018-05-06T05:43:10.037Z,4880
2018-05-06T05:43:35.539Z,4916
2018-05-06T05:44:01.051Z,4952
2018-05-06T05:44:26.485Z,4948
2018-05-06T05:44:51.982Z,4952
2018-05-06T05:45:17.444Z,4948
2018-05-06T05:45:42.924Z,4940
2018-05-06T05:46:08.474Z,4948
2018-05-06T05:46:34.418Z,4968
2018-05-06T05:46:59.977Z,4988
2018-05-06T05:47:25.436Z,5004
2018-05-06T05:47:50.961Z,5028
2018-05-06T05:48:16.324Z,5036
2018-05-06T05:48:41.867Z,5064
2018-05-06T05:49:07.425Z,5104
2018-05-06T05:49:32.866Z,5180
2018-05-06T05:49:58.408Z,5256
2018-05-06T05:50:23.895Z,5340
2018-05-06T05:50:49.390Z,5392
2018-05-06T05:51:14.887Z,5436
2018-05-06T05:51:40.600Z,5464
2018-05-06T05:52:06.173Z,5528
2018-05-06T05:52:31.735Z,5560
2018-05-06T05:52:57.375Z,5612
2018-05-06T05:53:22.971Z,5620
2018-05-06T05:53:48.612Z,5652
2018-05-06T05:54:14.162Z,5688
2018-05-06T05:54:39.608Z,5748
2018-05-06T05:55:05.193Z,5808
2018-05-06T05:55:30.909Z,5888
2018-05-06T05:55:56.190Z,5944
2018-05-06T05:56:21.807Z,6000
2018-05-06T05:56:47.431Z,6060
2018-05-06T05:57:12.992Z,6120
2018-05-06T05:57:38.433Z,6224
2018-05-06T05:58:03.938Z,6504
2018-05-06T05:58:29.375Z,6980
2018-05-06T05:58:54.831Z,7788
2018-05-06T05:59:20.305Z,8772
2018-05-06T05:59:45.813Z,9508
2018-05-06T06:00:11.232Z,9904
2018-05-06T06:00:36.724Z,9880
2018-05-06T06:01:02.188Z,9548
2018-05-06T06:01:27.770Z,9252
2018-05-06T06:01:53.146Z,9116
2018-05-06T06:02:18.798Z,9220
2018-05-06T06:02:44.308Z,9292
2018-05-06T06:03:09.897Z,9416
2018-05-06T06:03:35.404Z,9652
2018-05-06T06:04:00.974Z,9888
2018-05-06T06:04:26.491Z,10420
2018-05-06T06:04:52.018Z,10876
2018-05-06T06:05:17.501Z,11052
2018-05-06T06:05:43.078Z,10828
2018-05-06T06:06:08.517Z,10560
2018-05-06T06:06:34.082Z,10504
2018-05-06T06:06:59.604Z,10748
2018-05-06T06:07:25.041Z,11100
2018-05-06T06:07:50.647Z,10808
2018-05-06T06:08:16.032Z,11276
2018-05-06T06:08:41.488Z,10900
2018-05-06T06:09:07.635Z,10276
2018-05-06T06:09:33.011Z,10052
2018-05-06T06:09:58.496Z,9932
2018-05-06T06:10:23.955Z,9820
2018-05-06T06:10:49.641Z,9772
2018-05-06T06:11:15.256Z,9768
2018-05-06T06:11:40.778Z,9680
2018-05-06T06:12:06.652Z,9752
2018-05-06T06:12:32.286Z,9896
2018-05-06T06:12:57.768Z,10376
2018-05-06T06:13:23.193Z,12060
2018-05-06T06:13:48.775Z,14380
2018-05-06T06:14:14.276Z,17120
2018-05-06T06:14:39.819Z,20096
2018-05-06T06:15:05.264Z,22336
2018-05-06T06:15:30.728Z,24224
2018-05-06T06:15:56.225Z,25696
2018-05-06T06:16:21.658Z,26400
2018-05-06T06:16:47.149Z,26656
2018-05-06T06:17:12.588Z,27360
2018-05-06T06:17:38.304Z,27936
2018-05-06T06:18:03.792Z,28096
2018-05-06T06:18:29.234Z,27616
2018-05-06T06:18:54.685Z,26880
2018-05-06T06:19:20.246Z,25824
2018-05-06T06:19:45.670Z,25344
2018-05-06T06:20:11.126Z,24704
2018-05-06T06:20:36.573Z,24128
2018-05-06T06:21:02.059Z,24224
2018-05-06T06:21:27.530Z,24800
2018-05-06T06:21:53.067Z,25184
2018-05-06T06:22:18.618Z,25760
2018-05-06T06:22:44.140Z,25472
2018-05-06T06:23:09.562Z,25216
2018-05-06T06:23:35.045Z,24768
2018-05-06T06:24:00.579Z,23488
2018-05-06T06:24:26.074Z,20000
2018-05-06T06:24:51.521Z,15872
2018-05-06T06:25:16.999Z,11496
2018-05-06T06:25:42.458Z,7848
2018-05-06T06:26:07.975Z,5896
2018-05-06T06:26:33.406Z,5432
2018-05-06T06:26:58.813Z,5232
2018-05-06T06:27:24.279Z,5120
2018-05-06T06:27:49.772Z,5044
2018-05-06T06:28:15.315Z,4992
2018-05-06T06:28:40.773Z,4940
2018-05-06T06:29:06.288Z,4900
2018-05-06T06:29:31.766Z,4864
2018-05-06T06:29:57.201Z,4828
2018-05-06T06:30:22.708Z,4800
2018-05-06T06:30:48.231Z,4768
2018-05-06T06:31:13.670Z,4732
2018-05-06T06:31:39.134Z,4696
2018-05-06T06:32:04.637Z,4668
2018-05-06T06:32:30.321Z,4636
2018-05-06T06:32:55.882Z,4608
2018-05-06T06:33:21.342Z,4576
2018-05-06T06:33:46.826Z,4548
2018-05-06T06:34:12.328Z,4520
2018-05-06T06:34:37.834Z,4496
2018-05-06T06:35:03.281Z,4472
2018-05-06T06:35:28.789Z,4452
2018-05-06T06:35:54.280Z,4432
2018-05-06T06:36:19.675Z,4420
2018-05-06T06:36:45.128Z,4412
2018-05-06T06:37:10.587Z,4408
2018-05-06T06:37:36.266Z,4308
2018-05-06T06:38:01.680Z,4744
2018-05-06T06:38:27.239Z,4740
2018-05-06T06:38:52.660Z,4716
2018-05-06T06:39:18.130Z,4836
2018-05-06T06:39:43.600Z,4824
2018-05-06T06:40:09.108Z,4820
2018-05-06T06:40:34.570Z,4792
2018-05-06T06:41:00.159Z,4780
2018-05-06T06:41:25.636Z,4776
2018-05-06T06:41:51.105Z,4764
2018-05-06T06:42:16.923Z,4756
2018-05-06T06:42:42.472Z,4752
2018-05-06T06:43:07.886Z,4780
2018-05-06T06:43:33.363Z,4732
2018-05-06T06:43:58.966Z,4712
2018-05-06T06:44:24.553Z,4724
2018-05-06T06:44:51.320Z,4704
2018-05-06T06:45:16.958Z,4804
2018-05-06T06:45:42.713Z,4724
2018-05-06T06:46:08.505Z,4672
2018-05-06T06:46:34.021Z,4648
2018-05-06T06:46:59.471Z,4636
2018-05-06T06:47:24.969Z,4640
2018-05-06T06:47:50.564Z,4660
2018-05-06T06:48:16.000Z,4848
2018-05-06T06:48:41.541Z,4904
2018-05-06T06:49:07.066Z,5132
2018-05-06T06:49:32.548Z,5256
2018-05-06T06:49:58.020Z,5504
2018-05-06T06:50:23.492Z,5772
2018-05-06T06:50:48.970Z,6100
2018-05-06T06:51:14.489Z,6356
2018-05-06T06:51:39.922Z,6772
2018-05-06T06:52:05.378Z,7140
2018-05-06T06:52:30.832Z,7628
2018-05-06T06:52:56.301Z,8788
2018-05-06T06:53:21.787Z,12564
2018-05-06T06:53:47.326Z,17952
2018-05-06T06:54:12.796Z,23552
2018-05-06T06:54:38.243Z,29920
2018-05-06T06:55:03.741Z,33568
2018-05-06T06:55:29.205Z,36320
2018-05-06T06:55:54.652Z,37120
2018-05-06T06:56:20.136Z,37056
2018-05-06T06:56:45.648Z,36416
2018-05-06T06:57:11.100Z,36864
2018-05-06T06:57:36.551Z,36192
2018-05-06T06:58:02.019Z,35520
2018-05-06T06:58:27.496Z,35744
2018-05-06T06:58:52.957Z,35616
2018-05-06T06:59:18.418Z,35552
2018-05-06T06:59:43.910Z,36224
2018-05-06T07:00:09.423Z,36576
2018-05-06T07:00:34.914Z,36480
2018-05-06T07:01:00.398Z,36864
2018-05-06T07:01:25.854Z,36800
2018-05-06T07:01:51.328Z,36672
2018-05-06T07:02:16.769Z,37536
2018-05-06T07:02:42.300Z,37152
2018-05-06T07:03:07.792Z,38240
2018-05-06T07:03:33.299Z,38784
2018-05-06T07:03:58.853Z,38784
2018-05-06T07:04:24.334Z,39520
2018-05-06T07:04:49.792Z,39872
2018-05-06T07:05:15.331Z,40288
2018-05-06T07:05:40.802Z,39968
2018-05-06T07:06:06.268Z,39872
2018-05-06T07:06:31.715Z,39776
2018-05-06T07:06:57.237Z,39936
2018-05-06T07:07:23.053Z,39616
2018-05-06T07:07:48.480Z,40128
2018-05-06T07:08:13.966Z,39552
2018-05-06T07:08:39.447Z,39936
2018-05-06T07:09:04.919Z,39552
2018-05-06T07:09:30.423Z,39392
2018-05-06T07:09:55.920Z,38240
2018-05-06T07:10:21.369Z,35904
2018-05-06T07:10:46.821Z,33600
2018-05-06T07:11:12.274Z,29568
2018-05-06T07:11:37.805Z,25504
2018-05-06T07:12:03.252Z,20384
2018-05-06T07:12:28.755Z,15424
2018-05-06T07:12:54.241Z,10788
2018-05-06T07:13:19.853Z,7792
2018-05-06T07:13:45.312Z,6580
2018-05-06T07:14:10.795Z,6200
2018-05-06T07:14:36.270Z,5956
2018-05-06T07:15:01.790Z,5792
2018-05-06T07:15:27.360Z,5684
2018-05-06T07:15:53.466Z,5600
2018-05-06T07:16:19.317Z,5620
2018-05-06T07:16:44.843Z,5520
2018-05-06T07:17:10.391Z,5472
2018-05-06T07:17:35.855Z,5436
2018-05-06T07:18:01.343Z,5400
2018-05-06T07:18:26.786Z,5376
2018-05-06T07:18:52.412Z,5336
2018-05-06T07:19:17.962Z,5328
2018-05-06T07:19:43.538Z,5296
2018-05-06T07:20:09.008Z,5280
2018-05-06T07:20:34.620Z,5236
2018-05-06T07:21:00.091Z,5228
2018-05-06T07:21:25.691Z,5188
2018-05-06T07:21:51.211Z,5188
2018-05-06T07:22:16.863Z,5168
2018-05-06T07:22:42.369Z,5148
2018-05-06T07:23:07.851Z,5140
2018-05-06T07:23:33.394Z,5140
2018-05-06T07:23:58.870Z,5124
2018-05-06T07:24:24.361Z,5124
2018-05-06T07:24:49.930Z,5116
2018-05-06T07:25:15.436Z,5112
2018-05-06T07:25:41.025Z,5112
2018-05-06T07:26:06.545Z,5100
2018-05-06T07:26:32.096Z,5112
2018-05-06T07:26:57.631Z,5120
2018-05-06T07:27:23.131Z,5128
2018-05-06T07:27:48.637Z,5128
2018-05-06T07:28:14.238Z,5132
2018-05-06T07:28:39.757Z,5148
2018-05-06T07:29:05.277Z,5164
2018-05-06T07:29:30.736Z,5200
2018-05-06T07:29:56.317Z,5212
2018-05-06T07:30:21.880Z,5232
2018-05-06T07:30:47.577Z,5252
2018-05-06T07:31:13.109Z,5268
2018-05-06T07:31:38.705Z,5272
2018-05-06T07:32:04.194Z,5288
2018-05-06T07:32:29.679Z,5288
2018-05-06T07:32:55.277Z,5304
2018-05-06T07:33:20.721Z,5284
2018-05-06T07:33:46.231Z,5272
2018-05-06T07:34:12.055Z,5228
2018-05-06T07:34:37.493Z,5204
2018-05-06T07:35:02.999Z,5188
2018-05-06T07:35:28.556Z,5180
2018-05-06T07:35:54.154Z,5172
2018-05-06T07:36:19.587Z,5148
2018-05-06T07:36:45.286Z,5116
2018-05-06T07:37:10.920Z,5088
2018-05-06T07:37:36.487Z,5072
2018-05-06T07:38:02.043Z,5056
2018-05-06T07:38:27.767Z,5044
2018-05-06T07:38:53.210Z,5036
2018-05-06T07:39:18.757Z,5020
2018-05-06T07:39:44.352Z,4996
2018-05-06T07:40:10.034Z,4964
2018-05-06T07:40:36.654Z,4940
2018-05-06T07:41:01.551Z,4908
2018-05-06T07:41:28.082Z,4880
2018-05-06T07:41:53.545Z,4856
2018-05-06T07:42:19.158Z,4824
2018-05-06T07:42:44.822Z,4788
2018-05-06T07:43:10.382Z,4760
2018-05-06T07:43:35.897Z,4724
2018-05-06T07:44:01.466Z,4696
2018-05-06T07:44:27.397Z,4668
2018-05-06T07:44:52.925Z,4640
2018-05-06T07:45:18.516Z,4616
2018-05-06T07:45:44.203Z,4584
2018-05-06T07:46:09.677Z,4564
2018-05-06T07:46:35.252Z,4544
2018-05-06T07:47:00.760Z,4520
2018-05-06T07:47:26.304Z,4504
2018-05-06T07:47:51.872Z,4488
2018-05-06T07:48:17.451Z,4468
2018-05-06T07:48:42.975Z,4460
2018-05-06T07:49:08.557Z,4452
2018-05-06T07:49:33.951Z,4440
2018-05-06T07:50:59.246Z,4396
2018-05-06T07:51:24.894Z,4380
2018-05-06T07:51:50.319Z,4364
2018-05-06T07:52:16.247Z,4356
2018-05-06T07:52:42.047Z,4348
2018-05-06T07:53:08.004Z,4332
2018-05-06T07:53:33.370Z,4320
2018-05-06T07:54:00.199Z,4312
2018-05-06T07:54:25.866Z,4296
2018-05-06T07:54:51.552Z,4292
2018-05-06T07:55:17.011Z,4284
2018-05-06T07:55:43.787Z,4276
2018-05-06T07:56:09.121Z,4264
2018-05-06T07:56:34.674Z,4252
2018-05-06T07:57:00.881Z,4240
2018-05-06T07:57:27.359Z,4236
2018-05-06T07:57:53.019Z,4224
2018-05-06T07:58:43.006Z,4132
